createdAt,value
2023-03-12T00:00:38.965Z,5.25
2023-03-12T00:03:18.970Z,4.55
2023-03-12T00:06:10.585Z,4.32
2023-03-12T00:11:50.121Z,4.57
2023-03-12T00:14:36.996Z,5.78
2023-03-12T00:17:13.929Z,5.82
2023-03-12T00:19:57.612Z,4.70
2023-03-12T00:22:44.973Z,5.45
2023-03-12T00:25:25.730Z,4.50
2023-03-12T00:28:06.637Z,5.32
2023-03-12T00:30:48.469Z,6.00
2023-03-12T00:33:33.700Z,5.50
2023-03-12T00:36:26.218Z,5.63
2023-03-12T00:39:02.750Z,6.18
2023-03-12T00:41:41.282Z,5.38
2023-03-12T00:44:17.930Z,4.32
2023-03-12T00:47:01.847Z,4.13
2023-03-12T00:49:39.339Z,4.97
2023-03-12T00:52:28.464Z,4.90
2023-03-12T00:55:05.958Z,3.97
2023-03-12T00:57:46.092Z,4.72
2023-03-12T01:00:28.888Z,5.32
2023-03-12T01:03:06.401Z,5.70
2023-03-12T01:05:42.428Z,5.35
2023-03-12T01:08:20.265Z,5.70
2023-03-12T01:10:56.474Z,5.05
2023-03-12T01:13:40.928Z,4.63
2023-03-12T01:16:19.037Z,5.95
2023-03-12T01:19:00.996Z,8.43
2023-03-12T01:21:36.500Z,7.30
2023-03-12T01:24:20.987Z,6.50
2023-03-12T01:27:02.393Z,6.18
2023-03-12T01:29:51.493Z,6.15
2023-03-12T01:32:24.052Z,6.05
2023-03-12T01:35:04.474Z,5.68
2023-03-12T01:37:39.159Z,5.10
2023-03-12T01:40:29.345Z,4.60
2023-03-12T01:43:41.858Z,5.18
2023-03-12T01:46:37.009Z,4.80
2023-03-12T01:49:21.416Z,4.22
2023-03-12T01:52:05.782Z,4.82
2023-03-12T01:54:54.738Z,4.10
2023-03-12T01:57:49.873Z,3.58
2023-03-12T02:00:32.903Z,3.97
2023-03-12T02:03:17.002Z,3.50
2023-03-12T02:05:58.716Z,3.88
2023-03-12T02:08:43.797Z,4.10
2023-03-12T02:11:18.956Z,4.45
2023-03-12T02:14:11.238Z,4.00
2023-03-12T02:19:53.897Z,3.90
2023-03-12T02:22:28.127Z,4.10
2023-03-12T02:25:08.179Z,3.97
2023-03-12T02:27:48.774Z,4.03
2023-03-12T02:30:37.246Z,4.40
2023-03-12T02:33:20.177Z,4.63
2023-03-12T02:36:05.710Z,4.25
2023-03-12T02:39:04.801Z,3.80
2023-03-12T02:41:47.579Z,4.07
2023-03-12T02:44:34.107Z,4.20
2023-03-12T02:47:11.766Z,4.15
2023-03-12T02:49:48.929Z,4.88
2023-03-12T02:52:22.684Z,4.38
2023-03-12T02:55:04.384Z,4.68
2023-03-12T02:57:42.583Z,4.47
2023-03-12T03:00:20.241Z,5.03
2023-03-12T03:03:01.731Z,4.57
2023-03-12T03:05:44.353Z,5.07
2023-03-12T03:08:28.339Z,4.70
2023-03-12T03:11:09.222Z,4.75
2023-03-12T03:13:51.818Z,4.50
2023-03-12T03:16:44.537Z,4.90
2023-03-12T03:19:22.057Z,5.20
2023-03-12T03:21:59.144Z,5.55
2023-03-12T03:24:36.433Z,5.07
2023-03-12T03:27:13.325Z,5.80
2023-03-12T03:35:29.590Z,5.57
2023-03-12T03:38:14.705Z,5.30
2023-03-12T03:40:59.413Z,5.28
2023-03-12T03:43:37.689Z,5.72
2023-03-12T03:46:27.118Z,5.20
2023-03-12T03:49:18.527Z,4.80
2023-03-12T03:51:58.193Z,4.72
2023-03-12T03:54:57.763Z,4.43
2023-03-12T03:57:44.932Z,4.93
2023-03-12T04:00:34.341Z,4.90
2023-03-12T04:03:20.051Z,4.93
2023-03-12T04:06:02.550Z,5.60
2023-03-12T04:08:42.326Z,5.78
2023-03-12T04:11:44.499Z,5.55
2023-03-12T04:14:33.191Z,5.47
2023-03-12T04:17:14.509Z,5.78
2023-03-12T04:20:01.322Z,4.28
2023-03-12T04:22:41.805Z,4.90
2023-03-12T04:25:27.992Z,5.55
2023-03-12T04:28:16.849Z,5.22
2023-03-12T04:31:03.584Z,4.82
2023-03-12T04:33:48.492Z,5.43
2023-03-12T04:36:31.211Z,5.60
2023-03-12T04:39:13.476Z,6.30
2023-03-12T04:44:24.771Z,6.05
2023-03-12T04:47:04.062Z,5.20
2023-03-12T04:49:45.282Z,5.78
2023-03-12T04:52:27.076Z,5.88
2023-03-12T04:55:11.605Z,6.07
2023-03-12T04:57:50.095Z,6.03
2023-03-12T05:00:28.969Z,7.10
2023-03-12T05:03:12.115Z,6.32
2023-03-12T05:05:59.076Z,6.18
2023-03-12T05:08:34.426Z,7.10
2023-03-12T05:11:39.600Z,6.72
2023-03-12T05:14:23.432Z,6.50
2023-03-12T05:17:01.243Z,6.53
2023-03-12T05:19:38.274Z,6.65
2023-03-12T05:22:18.551Z,6.72
2023-03-12T05:24:59.918Z,8.27
2023-03-12T05:27:38.677Z,7.70
2023-03-12T05:30:16.558Z,7.38
2023-03-12T05:32:55.848Z,11.60
2023-03-12T05:35:40.250Z,13.30
2023-03-12T05:38:22.838Z,9.75
2023-03-12T05:41:09.904Z,9.00
2023-03-12T05:43:49.607Z,9.07
2023-03-12T05:46:25.945Z,9.87
2023-03-12T05:49:03.828Z,10.73
2023-03-12T05:51:42.539Z,9.55
2023-03-12T05:54:21.599Z,9.35
2023-03-12T05:57:09.384Z,9.33
2023-03-12T05:59:51.118Z,10.75
2023-03-12T06:02:32.888Z,17.90
2023-03-12T06:05:21.605Z,16.27
2023-03-12T06:08:00.020Z,13.30
2023-03-12T06:10:36.127Z,12.77
2023-03-12T06:13:14.910Z,13.55
2023-03-12T06:16:20.052Z,10.40
2023-03-12T06:18:58.626Z,10.25
2023-03-12T06:21:40.118Z,9.20
2023-03-12T06:24:21.673Z,9.27
2023-03-12T06:27:07.024Z,10.38
2023-03-12T06:32:29.041Z,13.70
2023-03-12T06:35:10.899Z,21.65
2023-03-12T06:37:51.455Z,12.45
2023-03-12T06:40:36.422Z,17.85
2023-03-12T06:43:17.885Z,9.63
2023-03-12T06:46:08.001Z,6.93
2023-03-12T06:48:50.265Z,7.88
2023-03-12T06:51:27.120Z,7.90
2023-03-12T06:54:08.662Z,7.65
2023-03-12T06:56:46.607Z,7.95
2023-03-12T06:59:26.740Z,7.88
2023-03-12T07:02:05.711Z,7.80
2023-03-12T07:05:01.992Z,8.07
2023-03-12T07:07:38.725Z,7.32
2023-03-12T07:10:35.187Z,8.25
2023-03-12T07:13:15.764Z,7.75
2023-03-12T07:15:52.974Z,7.32
2023-03-12T07:18:34.154Z,7.72
2023-03-12T07:21:12.572Z,7.70
2023-03-12T07:23:56.028Z,8.25
2023-03-12T07:26:30.229Z,6.45
2023-03-12T07:29:14.280Z,8.95
2023-03-12T07:31:52.436Z,7.18
2023-03-12T07:34:38.241Z,7.78
2023-03-12T07:37:22.362Z,6.78
2023-03-12T07:40:01.280Z,7.00
2023-03-12T07:42:52.365Z,8.63
2023-03-12T07:45:28.478Z,7.05
2023-03-12T07:48:06.345Z,7.20
2023-03-12T07:50:49.943Z,8.05
2023-03-12T07:53:41.632Z,8.10
2023-03-12T07:56:22.447Z,5.25
2023-03-12T08:01:35.933Z,6.03
2023-03-12T08:04:10.136Z,6.28
2023-03-12T08:06:58.276Z,6.38
2023-03-12T08:09:55.896Z,5.53
2023-03-12T08:12:37.691Z,5.90
2023-03-12T08:15:24.105Z,6.55
2023-03-12T08:18:07.971Z,5.70
2023-03-12T08:20:45.503Z,6.50
2023-03-12T08:23:21.482Z,5.32
2023-03-12T08:26:07.527Z,5.72
2023-03-12T08:28:52.947Z,6.28
2023-03-12T08:31:35.920Z,6.80
2023-03-12T08:34:18.553Z,4.95
2023-03-12T08:37:00.993Z,5.30
2023-03-12T08:39:48.735Z,3.97
2023-03-12T08:42:28.773Z,4.88
2023-03-12T08:45:09.267Z,5.18
2023-03-12T08:47:45.526Z,5.97
2023-03-12T08:50:25.869Z,5.13
2023-03-12T08:53:20.010Z,5.75
2023-03-12T08:56:04.852Z,6.30
2023-03-12T08:58:46.134Z,6.50
2023-03-12T09:04:09.778Z,6.55
2023-03-12T09:06:50.733Z,5.82
2023-03-12T09:09:32.559Z,5.55
2023-03-12T09:12:24.953Z,6.97
2023-03-12T09:15:06.067Z,6.00
2023-03-12T09:17:58.321Z,5.70
2023-03-12T09:20:38.272Z,5.55
2023-03-12T09:23:16.620Z,4.90
2023-03-12T09:25:57.467Z,4.82
2023-03-12T09:28:40.514Z,5.63
2023-03-12T09:31:21.404Z,5.85
2023-03-12T09:34:04.434Z,4.95
2023-03-12T09:36:38.996Z,5.95
2023-03-12T09:39:17.966Z,5.07
2023-03-12T09:41:57.861Z,5.43
2023-03-12T09:44:52.461Z,6.47
2023-03-12T09:47:40.146Z,5.50
2023-03-12T09:50:35.766Z,4.97
2023-03-12T09:53:22.150Z,5.65
2023-03-12T09:56:12.041Z,5.60
2023-03-12T09:58:56.298Z,5.57
2023-03-12T10:01:50.740Z,5.82
2023-03-12T10:04:58.902Z,5.43
2023-03-12T10:07:38.449Z,6.60
2023-03-12T10:10:43.155Z,6.03
2023-03-12T10:13:36.954Z,6.07
2023-03-12T10:16:32.866Z,5.72
2023-03-12T10:19:28.977Z,6.75
2023-03-12T10:22:31.374Z,6.80
2023-03-12T10:25:25.080Z,5.53
2023-03-12T10:28:15.952Z,5.47
2023-03-12T10:31:15.406Z,6.28
2023-03-12T10:34:28.376Z,6.07
2023-03-12T10:37:10.207Z,6.38
2023-03-12T10:39:53.781Z,5.10
2023-03-12T10:42:31.023Z,5.40
2023-03-12T10:45:32.794Z,5.75
2023-03-12T10:48:16.564Z,4.78
2023-03-12T10:51:05.450Z,4.93
2023-03-12T10:53:46.356Z,5.05
2023-03-12T10:56:29.527Z,5.40
2023-03-12T10:59:06.349Z,5.70
2023-03-12T11:01:53.037Z,5.68
2023-03-12T11:04:38.873Z,5.53
2023-03-12T11:07:41.405Z,9.35
2023-03-12T11:10:30.846Z,12.10
2023-03-12T11:13:31.241Z,5.88
2023-03-12T11:16:09.620Z,5.72
2023-03-12T11:19:03.977Z,6.65
2023-03-12T11:22:01.853Z,7.47
2023-03-12T11:24:42.188Z,13.98
2023-03-12T11:27:39.385Z,24.83
2023-03-12T11:30:37.619Z,6.28
2023-03-12T11:33:35.829Z,6.90
2023-03-12T11:36:46.237Z,5.93
2023-03-12T11:39:38.254Z,6.30
2023-03-12T11:42:37.988Z,6.07
2023-03-12T11:45:32.227Z,5.88
2023-03-12T11:48:26.416Z,6.15
2023-03-12T11:51:13.809Z,5.85
2023-03-12T11:54:11.220Z,7.57
2023-03-12T11:56:54.360Z,7.60
2023-03-12T11:59:44.319Z,5.75
2023-03-12T12:02:37.192Z,6.03
2023-03-12T12:05:34.915Z,5.82
2023-03-12T12:08:45.868Z,5.88
2023-03-12T12:11:32.991Z,6.20
2023-03-12T12:14:25.836Z,6.28
2023-03-12T12:17:40.375Z,6.00
2023-03-12T12:20:29.860Z,6.05
2023-03-12T12:23:19.494Z,6.15
2023-03-12T12:26:27.274Z,5.53
2023-03-12T12:29:18.881Z,5.55
2023-03-12T12:35:14.084Z,5.50
2023-03-12T12:38:03.499Z,5.63
2023-03-12T12:40:50.406Z,6.13
2023-03-12T12:43:38.921Z,5.50
2023-03-12T12:46:34.729Z,5.95
2023-03-12T12:49:20.252Z,5.32
2023-03-12T12:52:36.334Z,6.45
2023-03-12T12:55:32.972Z,6.15
2023-03-12T12:58:17.983Z,6.70
2023-03-12T13:00:59.715Z,5.88
2023-03-12T13:03:39.635Z,6.22
2023-03-12T13:06:25.840Z,5.70
2023-03-12T13:09:27.677Z,5.63
2023-03-12T13:12:47.801Z,5.80
2023-03-12T13:15:44.155Z,5.50
2023-03-12T13:18:38.972Z,10.55
2023-03-12T13:21:34.818Z,9.57
2023-03-12T13:24:31.101Z,13.23
2023-03-12T13:27:18.931Z,6.90
2023-03-12T13:30:07.678Z,6.22
2023-03-12T13:33:12.010Z,5.93
2023-03-12T13:36:05.587Z,7.95
2023-03-12T13:39:01.769Z,6.15
2023-03-12T13:42:01.486Z,6.10
2023-03-12T13:44:44.637Z,5.78
2023-03-12T13:47:40.140Z,5.80
2023-03-12T13:50:28.072Z,6.20
2023-03-12T13:53:22.544Z,6.10
2023-03-12T13:56:15.964Z,6.15
2023-03-12T13:59:10.477Z,4.93
2023-03-12T14:02:04.200Z,6.20
2023-03-12T14:04:56.685Z,5.85
2023-03-12T14:08:08.454Z,5.18
2023-03-12T14:11:22.180Z,5.28
2023-03-12T14:14:44.369Z,5.15
2023-03-12T14:17:33.795Z,6.20
2023-03-12T14:20:31.007Z,5.70
2023-03-12T14:23:14.754Z,5.40
2023-03-12T14:26:04.572Z,5.55
2023-03-12T14:28:50.459Z,10.20
2023-03-12T14:31:40.492Z,5.65
2023-03-12T14:34:35.726Z,6.07
2023-03-12T14:37:22.310Z,5.93
2023-03-12T14:39:59.067Z,5.97
2023-03-12T14:42:36.177Z,7.68
2023-03-12T14:45:22.216Z,6.38
2023-03-12T14:48:12.672Z,6.55
2023-03-12T14:50:56.358Z,7.15
2023-03-12T14:53:40.021Z,6.30
2023-03-12T14:56:31.946Z,7.03
2023-03-12T14:59:11.976Z,8.82
2023-03-12T15:01:46.141Z,11.07
2023-03-12T15:04:33.367Z,8.95
2023-03-12T15:07:30.860Z,7.75
2023-03-12T15:10:13.721Z,7.53
2023-03-12T15:12:59.715Z,9.52
2023-03-12T15:15:45.627Z,8.82
2023-03-12T15:18:30.324Z,6.63
2023-03-12T15:21:11.639Z,6.90
2023-03-12T15:24:00.388Z,5.45
2023-03-12T15:26:41.689Z,5.40
2023-03-12T15:29:30.901Z,5.68
2023-03-12T15:32:19.203Z,9.00
2023-03-12T15:35:04.344Z,8.88
2023-03-12T15:37:46.381Z,6.10
2023-03-12T15:40:36.473Z,6.13
2023-03-12T15:43:23.893Z,6.82
2023-03-12T15:46:10.339Z,6.47
2023-03-12T15:48:48.390Z,7.22
2023-03-12T15:51:45.245Z,5.93
2023-03-12T15:54:40.196Z,6.53
2023-03-12T15:57:38.772Z,6.88
2023-03-12T16:00:34.329Z,8.38
2023-03-12T16:03:21.867Z,7.97
2023-03-12T16:06:03.559Z,9.90
2023-03-12T16:09:02.354Z,7.88
2023-03-12T16:11:48.718Z,7.50
2023-03-12T16:14:36.909Z,7.95
2023-03-12T16:17:20.234Z,8.70
2023-03-12T16:20:09.364Z,11.65
2023-03-12T16:22:48.394Z,11.48
2023-03-12T16:25:29.567Z,11.82
2023-03-12T16:28:18.919Z,12.40
2023-03-12T16:31:04.372Z,13.27
2023-03-12T16:33:39.790Z,11.25
2023-03-12T16:36:33.883Z,11.55
2023-03-12T16:39:11.962Z,14.85
2023-03-12T16:41:53.704Z,19.88
2023-03-12T16:44:39.385Z,14.82
2023-03-12T16:47:32.014Z,15.45
2023-03-12T16:50:13.381Z,15.25
2023-03-12T16:52:52.116Z,17.08
2023-03-12T16:55:33.561Z,20.35
2023-03-12T16:58:19.638Z,20.88
2023-03-12T17:01:00.195Z,20.55
2023-03-12T17:03:47.136Z,21.10
2023-03-12T17:06:32.853Z,20.45
2023-03-12T17:09:27.013Z,21.48
2023-03-12T17:14:59.535Z,24.57
2023-03-12T17:17:44.021Z,25.33
2023-03-12T17:20:34.963Z,27.95
2023-03-12T17:23:15.750Z,26.88
2023-03-12T17:25:58.515Z,33.25
2023-03-12T17:28:38.046Z,44.92
2023-03-12T17:31:21.326Z,42.92
2023-03-12T17:34:07.051Z,41.17
2023-03-12T17:36:52.256Z,40.50
2023-03-12T17:39:29.845Z,40.72
2023-03-12T17:42:22.639Z,40.33
2023-03-12T17:45:16.015Z,40.45
2023-03-12T17:48:01.925Z,40.25
2023-03-12T17:50:42.282Z,44.13
2023-03-12T17:53:22.653Z,43.55
2023-03-12T17:56:00.129Z,40.90
2023-03-12T17:58:41.667Z,41.75
2023-03-12T18:01:20.693Z,46.90
2023-03-12T18:03:59.178Z,45.63
2023-03-12T18:06:43.245Z,47.05
2023-03-12T18:09:33.843Z,65.72
2023-03-12T18:12:05.495Z,48.60
2023-03-12T18:14:47.581Z,53.17
2023-03-12T18:17:37.741Z,55.65
2023-03-12T18:23:15.459Z,53.20
2023-03-12T18:28:40.514Z,50.08
2023-03-12T18:31:19.206Z,47.08
2023-03-12T18:37:00.347Z,49.38
2023-03-12T18:39:36.575Z,53.95
2023-03-12T18:42:18.364Z,55.05
2023-03-12T18:44:58.734Z,60.88
2023-03-12T18:47:42.389Z,56.38
2023-03-12T18:50:21.191Z,56.58
2023-03-12T18:53:06.268Z,56.55
2023-03-12T18:55:43.695Z,54.03
2023-03-12T18:58:23.074Z,52.47
2023-03-12T19:01:16.229Z,54.63
2023-03-12T19:03:59.580Z,50.03
2023-03-12T19:06:50.806Z,50.90
2023-03-12T19:09:28.277Z,54.13
2023-03-12T19:12:09.428Z,48.20
2023-03-12T19:14:55.909Z,48.13
2023-03-12T19:17:35.606Z,37.72
2023-03-12T19:20:42.622Z,29.58
2023-03-12T19:23:18.332Z,27.55
2023-03-12T19:26:09.983Z,25.23
2023-03-12T19:28:51.818Z,24.63
2023-03-12T19:31:50.323Z,24.20
2023-03-12T19:34:35.719Z,22.40
2023-03-12T19:37:16.578Z,21.70
2023-03-12T19:40:08.920Z,22.92
2023-03-12T19:42:46.586Z,32.53
2023-03-12T19:45:30.957Z,29.20
2023-03-12T19:48:16.341Z,29.30
2023-03-12T19:50:56.891Z,29.92
2023-03-12T19:53:31.616Z,32.78
2023-03-12T19:56:23.663Z,27.63
2023-03-12T19:58:59.990Z,28.80
2023-03-12T20:01:36.482Z,32.25
2023-03-12T20:04:24.195Z,40.92
2023-03-12T20:07:02.510Z,56.22
2023-03-12T20:09:52.730Z,54.05
2023-03-12T20:12:30.763Z,46.55
2023-03-12T20:15:11.204Z,50.47
2023-03-12T20:17:49.687Z,51.90
2023-03-12T20:20:32.464Z,51.25
2023-03-12T20:23:09.755Z,52.47
2023-03-12T20:25:55.625Z,50.78
2023-03-12T20:28:38.128Z,50.55
2023-03-12T20:31:16.248Z,53.05
2023-03-12T20:33:59.334Z,51.85
2023-03-12T20:36:40.004Z,58.45
2023-03-12T20:39:20.047Z,61.83
2023-03-12T20:42:06.576Z,65.43
2023-03-12T20:44:48.620Z,67.47
2023-03-12T20:47:30.439Z,74.35
2023-03-12T20:50:17.866Z,72.15
2023-03-12T20:53:08.811Z,76.78
2023-03-12T20:55:52.776Z,76.22
2023-03-12T20:58:30.578Z,80.88
2023-03-12T21:01:12.986Z,75.47
2023-03-12T21:03:47.540Z,49.38
2023-03-12T21:06:27.963Z,50.53
2023-03-12T21:09:14.986Z,63.38
2023-03-12T21:12:07.074Z,77.55
2023-03-12T21:14:58.431Z,62.30
2023-03-12T21:17:44.497Z,64.82
2023-03-12T21:20:27.790Z,67.88
2023-03-12T21:23:05.563Z,66.50
2023-03-12T21:25:55.854Z,70.72
2023-03-12T21:28:33.685Z,68.60
2023-03-12T21:31:18.135Z,72.22
2023-03-12T21:34:03.707Z,75.28
2023-03-12T21:36:44.668Z,79.22
2023-03-12T21:39:25.257Z,76.65
2023-03-12T21:42:09.600Z,75.00
2023-03-12T21:44:43.620Z,75.57
2023-03-12T21:47:19.755Z,66.50
2023-03-12T21:49:57.618Z,66.00
2023-03-12T21:52:51.230Z,63.85
2023-03-12T21:55:27.804Z,64.10
2023-03-12T21:58:05.308Z,60.35
2023-03-12T22:00:48.999Z,61.22
2023-03-12T22:03:31.632Z,62.60
2023-03-12T22:06:24.659Z,64.00
2023-03-12T22:09:04.678Z,65.10
2023-03-12T22:11:42.226Z,64.43
2023-03-12T22:14:28.697Z,65.70
2023-03-12T22:17:11.146Z,62.28
2023-03-12T22:20:02.253Z,62.42
2023-03-12T22:22:39.453Z,58.95
2023-03-12T22:25:17.937Z,61.22
2023-03-12T22:27:56.509Z,59.85
2023-03-12T22:30:37.768Z,63.30
2023-03-12T22:33:14.343Z,66.13
2023-03-12T22:35:52.579Z,65.50
2023-03-12T22:38:39.087Z,66.25
2023-03-12T22:41:26.686Z,62.75
2023-03-12T22:44:10.346Z,62.28
2023-03-12T22:47:04.770Z,61.95
2023-03-12T22:49:53.204Z,60.72
2023-03-12T22:52:46.922Z,61.70
2023-03-12T22:55:20.394Z,63.88
2023-03-12T22:57:59.993Z,58.90
2023-03-12T23:00:36.135Z,60.83
2023-03-12T23:03:19.281Z,60.63
2023-03-12T23:06:02.600Z,61.40
2023-03-12T23:08:41.843Z,59.35
2023-03-12T23:11:22.172Z,58.75
2023-03-12T23:14:11.827Z,59.00
2023-03-12T23:16:52.100Z,55.85
2023-03-12T23:19:42.516Z,57.15
2023-03-12T23:22:16.797Z,54.67
2023-03-12T23:25:03.085Z,55.08
2023-03-12T23:27:49.464Z,54.90
2023-03-12T23:30:31.196Z,53.28
2023-03-12T23:33:16.530Z,54.15
2023-03-12T23:36:04.577Z,53.70
2023-03-12T23:38:49.888Z,53.03
2023-03-12T23:41:33.268Z,53.50
2023-03-12T23:44:11.729Z,53.20
2023-03-12T23:46:55.193Z,52.45
2023-03-12T23:49:32.067Z,52.28
2023-03-12T23:52:10.971Z,53.30
2023-03-12T23:54:51.874Z,53.58
2023-03-12T23:57:31.106Z,54.75
